Time;durP1;ratioP1;P1;durP2;ratioP2;P2;SDS_P1;SDS_P2;PMS_P1;PMS_P2;Temp;Humidity;BMP_temperature;BMP_pressure;BME280_temperature;BME280_humidity;BME280_pressure;Samples;Min_cycle;Max_cycle;Signal;HPM_P1;HPM_P2
2022/07/20 00:00:08;;;;;;;7.82;3.60;;;23.50;63.00;;;;;;4961409;28;20381;-64
2022/07/20 00:02:34;;;;;;;;;;;23.40;63.50;;;;;;4961360;28;20038;-64
2022/07/20 00:05:00;;;;;;;10.25;3.35;;;23.30;63.30;;;;;;4977123;28;20009;-64
2022/07/20 00:07:26;;;;;;;5.13;3.25;;;23.30;63.50;;;;;;5008947;28;20089;-64
2022/07/20 00:12:36;;;;;;;7.55;3.15;;;23.20;63.40;;;;;;5013209;28;20046;-64
2022/07/20 00:15:02;;;;;;;5.43;3.35;;;23.10;63.50;;;;;;4980089;28;20100;-65
2022/07/20 00:17:28;;;;;;;7.25;3.30;;;23.10;63.60;;;;;;5014031;28;20109;-64
2022/07/20 00:19:54;;;;;;;7.53;4.10;;;23.10;63.70;;;;;;4996267;28;20483;-64
2022/07/20 00:22:20;;;;;;;5.70;2.92;;;23.00;63.80;;;;;;4996368;28;20054;-65
2022/07/20 00:24:45;;;;;;;5.15;3.28;;;23.00;64.00;;;;;;4993641;28;20046;-64
2022/07/20 00:27:11;;;;;;;5.45;3.38;;;23.00;64.10;;;;;;5013558;28;20049;-64
2022/07/20 00:29:37;;;;;;;7.07;3.50;;;22.90;64.10;;;;;;4996258;28;20046;-65
2022/07/20 00:32:03;;;;;;;3.80;3.05;;;22.90;64.00;;;;;;4995937;28;20038;-65
2022/07/20 00:34:29;;;;;;;6.40;2.88;;;22.90;64.10;;;;;;5013725;28;20041;-64
2022/07/20 00:36:54;;;;;;;5.15;3.47;;;22.80;64.10;;;;;;5013403;28;20046;-64
2022/07/20 00:39:20;;;;;;;4.65;3.22;;;22.70;64.20;;;;;;4996186;28;20041;-67
2022/07/20 00:41:46;;;;;;;6.38;3.30;;;22.70;64.20;;;;;;5013521;28;20446;-65
2022/07/20 00:44:12;;;;;;;6.55;3.45;;;22.70;64.30;;;;;;5013139;28;20081;-64
2022/07/20 00:46:41;;;;;;;6.75;3.30;;;22.60;64.90;;;;;;4995751;28;20042;-64
2022/07/20 00:49:08;;;;;;;6.50;3.72;;;22.60;64.30;;;;;;5013460;28;20042;-64
2022/07/20 00:51:35;;;;;;;6.30;3.53;;;22.50;64.80;;;;;;5013279;28;20563;-64
2022/07/20 00:54:03;;;;;;;5.43;3.40;;;22.50;64.90;;;;;;4993417;28;20348;-64
2022/07/20 00:56:29;;;;;;;4.32;3.10;;;22.40;65.20;;;;;;5013247;28;20030;-64
2022/07/20 00:58:55;;;;;;;7.00;3.40;;;22.20;65.20;;;;;;4995465;28;20046;-64
2022/07/20 01:01:21;;;;;;;5.45;3.22;;;22.20;65.40;;;;;;5013085;28;20050;-63
2022/07/20 01:03:47;;;;;;;5.97;3.40;;;22.10;65.90;;;;;;4995383;28;20133;-64
2022/07/20 01:06:13;;;;;;;3.75;3.05;;;22.10;65.60;;;;;;4995220;28;20093;-64
2022/07/20 01:08:39;;;;;;;6.60;3.70;;;22.10;65.50;;;;;;5012904;28;20077;-64
2022/07/20 01:11:05;;;;;;;6.72;3.40;;;22.10;65.30;;;;;;4995340;28;20042;-64
2022/07/20 01:13:31;;;;;;;7.00;3.42;;;22.10;65.20;;;;;;4995201;28;20181;-64
2022/07/20 01:15:57;;;;;;;10.95;3.10;;;22.10;65.30;;;;;;5012816;28;20086;-65
2022/07/20 01:18:23;;;;;;;6.43;3.42;;;22.10;65.30;;;;;;4995125;28;20041;-64
2022/07/20 01:20:50;;;;;;;6.72;3.83;;;22.10;65.40;;;;;;5012924;28;20289;-63
2022/07/20 01:23:17;;;;;;;8.65;3.95;;;22.10;65.60;;;;;;4978444;28;20046;-64
2022/07/20 01:25:43;;;;;;;7.43;3.80;;;22.00;65.50;;;;;;4992051;28;20050;-64
2022/07/20 01:28:12;;;;;;;5.93;3.13;;;22.00;65.50;;;;;;4995031;28;20046;-64
2022/07/20 01:30:39;;;;;;;8.40;3.60;;;22.00;65.60;;;;;;4995287;28;20042;-64
2022/07/20 01:33:05;;;;;;;5.78;4.00;;;22.00;65.50;;;;;;4994811;28;20033;-63
2022/07/20 01:35:31;;;;;;;7.18;3.75;;;22.00;65.40;;;;;;4978923;28;20060;-64
2022/07/20 01:37:56;;;;;;;6.45;4.05;;;22.00;65.40;;;;;;5012464;28;20480;-65
2022/07/20 01:40:23;;;;;;;5.70;3.53;;;22.00;65.50;;;;;;4994837;28;20045;-64
2022/07/20 01:42:49;;;;;;;4.47;3.60;;;21.90;65.60;;;;;;4978629;28;20046;-64
2022/07/20 01:45:15;;;;;;;8.40;4.15;;;22.00;65.70;;;;;;4982548;28;20305;-64
2022/07/20 01:47:41;;;;;;;6.47;3.72;;;21.90;65.60;;;;;;4975227;28;20089;-64
2022/07/20 01:50:07;;;;;;;6.88;4.25;;;21.90;65.50;;;;;;4975232;28;20049;-64
2022/07/20 01:52:33;;;;;;;5.60;3.30;;;21.80;65.50;;;;;;4975344;28;20392;-64
2022/07/20 01:54:59;;;;;;;6.40;4.35;;;21.80;65.50;;;;;;4972609;28;20069;-64
2022/07/20 01:57:25;;;;;;;8.45;4.40;;;21.80;65.60;;;;;;4975381;28;20038;-65
2022/07/20 01:59:51;;;;;;;7.97;4.00;;;21.80;65.70;;;;;;4992596;28;20467;-64
2022/07/20 02:02:16;;;;;;;6.30;4.25;;;21.80;65.60;;;;;;4975390;28;20046;-65
2022/07/20 02:04:42;;;;;;;8.32;4.25;;;21.80;65.70;;;;;;4975383;28;20405;-63
2022/07/20 02:07:08;;;;;;;8.00;4.18;;;21.80;65.70;;;;;;4958843;28;20284;-63
2022/07/20 02:09:34;;;;;;;9.10;4.63;;;21.80;65.60;;;;;;4992258;28;20104;-62
2022/07/20 02:12:00;;;;;;;6.97;3.40;;;21.80;65.70;;;;;;4958821;28;20046;-64
2022/07/20 02:14:26;;;;;;;6.00;3.90;;;21.70;65.80;;;;;;4975137;28;20038;-64
2022/07/20 02:16:52;;;;;;;6.25;3.72;;;21.70;66.00;;;;;;4975005;28;20053;-64
2022/07/20 02:19:17;;;;;;;5.18;3.67;;;21.60;66.20;;;;;;4975146;28;20046;-63
2022/07/20 02:21:44;;;;;;;5.78;3.85;;;21.60;66.10;;;;;;4975137;28;20385;-64
2022/07/20 02:24:10;;;;;;;6.88;3.38;;;21.60;66.20;;;;;;4956147;28;20053;-63
2022/07/20 02:26:36;;;;;;;6.60;3.72;;;21.50;66.40;;;;;;4958699;28;20046;-63
2022/07/20 02:29:02;;;;;;;6.63;4.18;;;21.50;66.40;;;;;;4974650;28;20049;-64
2022/07/20 02:31:28;;;;;;;7.65;3.65;;;21.50;66.50;;;;;;4958818;28;20081;-65
2022/07/20 02:33:54;;;;;;;7.78;3.63;;;21.40;66.50;;;;;;4974859;28;20069;-64
2022/07/20 02:36:20;;;;;;;6.88;4.10;;;21.40;66.50;;;;;;4961236;28;20137;-63
2022/07/20 02:38:46;;;;;;;5.68;3.53;;;21.40;66.50;;;;;;4995924;28;20038;-63
2022/07/20 02:41:12;;;;;;;7.72;4.40;;;21.40;66.50;;;;;;4996025;28;20073;-64
2022/07/20 02:43:38;;;;;;;8.43;3.55;;;21.30;66.50;;;;;;4995931;28;20038;-63
2022/07/20 02:46:04;;;;;;;6.18;4.00;;;21.30;66.80;;;;;;4997362;28;20244;-65
2022/07/20 02:48:31;;;;;;;6.28;3.92;;;21.30;66.60;;;;;;4997803;28;20125;-65
2022/07/20 02:50:57;;;;;;;6.68;3.85;;;21.30;66.60;;;;;;5015530;28;20400;-64
2022/07/20 02:53:23;;;;;;;7.55;4.00;;;21.30;67.40;;;;;;4997837;28;20045;-64
2022/07/20 02:55:49;;;;;;;5.85;3.72;;;21.30;67.40;;;;;;5013119;28;20046;-63
2022/07/20 02:58:15;;;;;;;6.60;4.32;;;21.30;66.80;;;;;;4997975;28;20412;-64
2022/07/20 03:00:42;;;;;;;7.40;3.50;;;21.20;66.80;;;;;;4997715;28;20397;-64
2022/07/20 03:03:09;;;;;;;9.45;3.90;;;21.20;66.90;;;;;;5015342;28;20120;-63
2022/07/20 03:05:35;;;;;;;6.93;3.92;;;21.20;67.00;;;;;;5015137;28;20038;-65
2022/07/20 03:08:01;;;;;;;7.38;3.78;;;21.10;67.10;;;;;;4978055;28;20509;-64
2022/07/20 03:10:27;;;;;;;5.57;3.33;;;21.10;67.10;;;;;;4978237;28;20054;-64
2022/07/20 03:12:53;;;;;;;6.68;3.92;;;21.10;67.00;;;;;;4978065;28;20488;-64
2022/07/20 03:15:19;;;;;;;8.13;4.05;;;21.10;67.10;;;;;;4995326;28;20121;-64
2022/07/20 03:17:47;;;;;;;8.20;4.15;;;21.00;67.10;;;;;;4995817;28;20042;-64
2022/07/20 03:20:15;;;;;;;5.97;3.92;;;21.00;67.20;;;;;;4995367;28;20432;-64
2022/07/20 03:22:41;;;;;;;7.03;3.90;;;21.00;67.20;;;;;;4978004;28;20152;-63
2022/07/20 03:25:08;;;;;;;8.40;4.97;;;21.00;67.30;;;;;;4975533;28;20034;-63
2022/07/20 03:27:34;;;;;;;8.98;3.78;;;21.00;67.50;;;;;;4977727;28;20078;-64
2022/07/20 03:30:00;;;;;;;6.75;3.92;;;20.90;67.60;;;;;;4961411;28;20042;-63
2022/07/20 03:32:25;;;;;;;9.77;4.43;;;20.90;67.80;;;;;;4977657;28;20038;-64
2022/07/20 03:34:51;;;;;;;9.00;4.28;;;20.80;67.80;;;;;;4977508;28;20080;-64
2022/07/20 03:37:17;;;;;;;10.23;5.15;;;20.80;67.90;;;;;;4995088;28;20376;-63
2022/07/20 03:39:43;;;;;;;8.50;4.00;;;20.80;68.80;;;;;;4977450;28;20109;-64
2022/07/20 03:42:08;;;;;;;7.68;3.50;;;20.80;68.10;;;;;;4977518;28;20042;-64
2022/07/20 03:44:34;;;;;;;5.72;3.95;;;20.80;68.20;;;;;;4961163;28;20042;-63
2022/07/20 03:47:00;;;;;;;8.23;3.90;;;20.80;68.50;;;;;;4993905;28;20116;-64
2022/07/20 03:49:26;;;;;;;6.13;3.90;;;20.70;68.50;;;;;;4994727;28;20065;-63
2022/07/20 03:51:52;;;;;;;7.43;3.78;;;20.70;68.70;;;;;;4977227;28;20128;-65
2022/07/20 03:54:18;;;;;;;11.43;4.88;;;20.70;68.60;;;;;;4992667;28;20113;-65
2022/07/20 03:56:43;;;;;;;5.85;3.83;;;20.60;68.50;;;;;;4977264;28;20557;-64
2022/07/20 03:59:12;;;;;;;6.63;4.13;;;20.70;68.60;;;;;;4977356;28;20042;-65
2022/07/20 04:01:38;;;;;;;8.43;4.18;;;20.70;68.60;;;;;;4977314;28;20121;-63
2022/07/20 04:04:04;;;;;;;5.70;3.70;;;20.70;68.50;;;;;;4994519;28;20049;-64
2022/07/20 04:06:30;;;;;;;6.85;3.83;;;20.70;68.50;;;;;;4994279;28;20054;-64
2022/07/20 04:08:56;;;;;;;7.85;3.90;;;20.80;68.50;;;;;;4994611;28;20123;-64
2022/07/20 04:11:22;;;;;;;7.28;3.97;;;20.80;68.30;;;;;;4994296;28;20521;-64
2022/07/20 04:13:48;;;;;;;8.43;3.80;;;20.80;68.30;;;;;;4960841;28;20551;-64
2022/07/20 04:16:14;;;;;;;7.97;3.97;;;20.80;68.40;;;;;;4994184;28;20121;-64
2022/07/20 04:18:40;;;;;;;8.18;4.03;;;20.90;68.50;;;;;;4976864;28;20046;-64
2022/07/20 04:21:06;;;;;;;10.35;4.25;;;20.80;68.50;;;;;;4960519;28;20046;-64
2022/07/20 04:23:32;;;;;;;8.15;4.57;;;20.80;68.80;;;;;;4994395;28;20042;-64
2022/07/20 04:25:58;;;;;;;8.55;4.45;;;20.80;68.70;;;;;;4991514;28;20046;-64
2022/07/20 04:28:23;;;;;;;8.73;4.88;;;20.90;68.80;;;;;;4976558;28;20042;-63
2022/07/20 04:30:49;;;;;;;14.85;4.47;;;20.90;68.90;;;;;;4976512;28;20145;-63
2022/07/20 04:33:15;;;;;;;8.20;3.72;;;20.90;68.90;;;;;;4960461;28;20041;-64
2022/07/20 04:35:41;;;;;;;6.60;3.92;;;20.90;69.00;;;;;;4976371;28;20039;-63
2022/07/20 04:38:07;;;;;;;7.32;4.47;;;21.00;69.10;;;;;;4976716;28;20046;-64
2022/07/20 04:40:32;;;;;;;5.43;4.10;;;21.00;69.40;;;;;;4976365;28;20408;-64
2022/07/20 04:42:58;;;;;;;7.00;4.50;;;21.00;69.50;;;;;;4976632;28;20078;-63
2022/07/20 04:45:24;;;;;;;8.90;4.57;;;21.00;69.50;;;;;;4980199;28;20524;-64
2022/07/20 04:47:50;;;;;;;5.50;3.83;;;21.10;69.50;;;;;;4941063;28;20089;-64
2022/07/20 04:50:16;;;;;;;6.13;3.95;;;21.10;69.50;;;;;;4956757;28;20485;-64
2022/07/20 04:52:42;;;;;;;11.35;4.65;;;21.20;69.60;;;;;;4940971;28;20125;-64
2022/07/20 04:55:08;;;;;;;8.25;3.80;;;21.20;69.60;;;;;;4954680;28;20045;-64
2022/07/20 04:57:34;;;;;;;9.15;4.47;;;21.30;69.70;;;;;;4957019;28;20382;-64
2022/07/20 05:00:00;;;;;;;8.57;4.00;;;21.40;69.90;;;;;;4956566;28;20046;-63
2022/07/20 05:02:26;;;;;;;6.50;3.90;;;21.50;70.30;;;;;;4956855;28;20043;-64
2022/07/20 05:04:52;;;;;;;7.57;4.53;;;21.50;70.60;;;;;;4956627;28;20509;-65
2022/07/20 05:07:18;;;;;;;12.00;4.82;;;21.60;70.00;;;;;;4953717;28;20096;-64
2022/07/20 05:09:44;;;;;;;6.28;4.05;;;21.70;70.00;;;;;;4993553;28;20038;-64
2022/07/20 05:12:09;;;;;;;9.15;4.55;;;21.80;69.90;;;;;;4993398;28;20038;-64
2022/07/20 05:14:35;;;;;;;7.43;4.15;;;21.90;69.60;;;;;;4976036;28;20386;-65
2022/07/20 05:17:01;;;;;;;6.85;4.07;;;22.00;69.50;;;;;;4976567;28;20053;-64
2022/07/20 05:19:27;;;;;;;6.30;4.63;;;22.10;69.60;;;;;;4976259;28;20042;-64
2022/07/20 05:21:53;;;;;;;6.82;4.93;;;22.20;69.60;;;;;;4993763;28;20140;-64
2022/07/20 05:24:19;;;;;;;8.20;4.07;;;22.20;69.50;;;;;;4991522;28;20042;-64
2022/07/20 05:26:45;;;;;;;8.25;4.38;;;22.30;69.00;;;;;;4993681;28;20050;-63
2022/07/20 05:29:10;;;;;;;7.57;3.97;;;22.40;69.00;;;;;;4993769;28;20044;-64
2022/07/20 05:31:36;;;;;;;6.70;4.28;;;22.50;69.00;;;;;;4976146;28;20042;-64
2022/07/20 05:34:02;;;;;;;7.05;4.40;;;22.60;69.20;;;;;;4976000;28;20049;-67
2022/07/20 05:36:28;;;;;;;8.60;4.25;;;22.70;69.60;;;;;;4975315;28;20065;-65
2022/07/20 05:38:54;;;;;;;8.15;4.13;;;22.70;70.10;;;;;;4975626;28;20049;-63
2022/07/20 05:41:20;;;;;;;9.73;4.03;;;22.70;70.60;;;;;;4975443;28;20133;-64
2022/07/20 05:43:46;;;;;;;5.78;4.50;;;22.80;70.70;;;;;;4976422;28;20042;-64
2022/07/20 05:46:11;;;;;;;8.65;5.15;;;22.90;70.40;;;;;;4976325;28;20050;-65
2022/07/20 05:48:37;;;;;;;8.05;4.55;;;23.00;70.50;;;;;;4993501;28;20475;-64
2022/07/20 05:51:03;;;;;;;8.32;4.38;;;23.10;70.50;;;;;;4960024;28;20492;-64
2022/07/20 05:53:29;;;;;;;11.35;4.82;;;23.10;70.50;;;;;;4993439;28;20114;-65
2022/07/20 05:55:55;;;;;;;7.22;5.10;;;23.20;70.60;;;;;;4958014;28;20081;-66
2022/07/20 05:58:21;;;;;;;8.27;4.93;;;23.30;70.60;;;;;;4993624;28;20078;-64
2022/07/20 06:00:47;;;;;;;8.43;4.40;;;23.30;70.20;;;;;;4993491;28;20035;-64
2022/07/20 06:03:12;;;;;;;10.20;5.00;;;23.40;70.60;;;;;;4993495;28;20382;-64
2022/07/20 06:05:38;;;;;;;9.23;5.15;;;23.50;71.00;;;;;;4992959;28;20428;-66
2022/07/20 06:08:04;;;;;;;11.50;5.28;;;23.60;71.00;;;;;;4976263;28;20046;-63
2022/07/20 06:10:33;;;;;;;8.55;5.45;;;23.70;70.80;;;;;;4975319;28;20587;-64
2022/07/20 06:13:00;;;;;;;10.02;5.05;;;23.80;70.50;;;;;;4993499;28;20045;-64
2022/07/20 06:15:26;;;;;;;10.30;5.85;;;24.00;70.20;;;;;;4975833;28;20046;-64
2022/07/20 06:17:54;;;;;;;11.30;5.53;;;24.10;70.50;;;;;;4993225;28;20114;-64
2022/07/20 06:20:21;;;;;;;9.52;6.18;;;24.20;71.00;;;;;;4993182;28;20078;-64
2022/07/20 06:22:47;;;;;;;10.40;6.63;;;24.40;71.10;;;;;;4993136;28;20050;-64
2022/07/20 06:25:15;;;;;;;8.75;6.28;;;24.50;70.90;;;;;;4990964;28;20046;-64
2022/07/20 06:27:41;;;;;;;13.65;6.82;;;24.60;71.10;;;;;;4975865;28;20070;-65
2022/07/20 06:30:08;;;;;;;10.00;6.85;;;24.80;71.80;;;;;;4973386;28;20047;-64
2022/07/20 06:32:36;;;;;;;12.95;7.38;;;25.00;72.10;;;;;;4956399;28;20059;-65
2022/07/20 06:35:02;;;;;;;12.93;7.90;;;25.20;72.20;;;;;;4973536;28;20125;-64
2022/07/20 06:37:28;;;;;;;11.52;7.43;;;25.40;72.30;;;;;;4956455;28;20038;-64
2022/07/20 06:39:54;;;;;;;12.80;7.93;;;25.60;72.70;;;;;;4956207;28;20524;-64
2022/07/20 06:42:20;;;;;;;17.55;9.25;;;25.90;73.60;;;;;;4973434;28;20034;-64
2022/07/20 06:44:46;;;;;;;14.80;9.93;;;26.10;74.20;;;;;;4961136;28;20655;-65
2022/07/20 06:47:13;;;;;;;15.32;10.13;;;26.30;74.70;;;;;;4973456;28;20038;-64
2022/07/20 06:49:40;;;;;;;17.00;10.95;;;26.50;74.50;;;;;;4973453;28;20049;-64
2022/07/20 06:52:06;;;;;;;16.08;12.27;;;26.80;75.30;;;;;;4940368;28;20039;-64
2022/07/20 06:54:31;;;;;;;16.33;11.77;;;26.90;74.30;;;;;;4954105;28;20054;-65
2022/07/20 06:56:57;;;;;;;16.70;12.00;;;27.10;74.50;;;;;;4940059;28;20050;-64
2022/07/20 06:59:23;;;;;;;19.65;12.18;;;27.20;74.40;;;;;;4973527;28;20078;-64
2022/07/20 07:01:50;;;;;;;16.80;12.70;;;27.40;75.20;;;;;;4973384;28;20046;-64
2022/07/20 07:04:16;;;;;;;16.38;12.45;;;27.50;75.70;;;;;;4956409;28;20389;-67
2022/07/20 07:06:42;;;;;;;19.83;13.48;;;27.80;75.70;;;;;;4973347;28;20050;-64
2022/07/20 07:09:09;;;;;;;18.55;14.52;;;27.90;75.90;;;;;;4956124;28;20552;-64
2022/07/20 07:11:35;;;;;;;17.38;14.68;;;28.00;75.90;;;;;;4956362;28;20070;-66
2022/07/20 07:14:02;;;;;;;17.58;13.75;;;28.10;75.90;;;;;;4955994;28;20043;-65
2022/07/20 07:16:28;;;;;;;24.98;15.23;;;28.20;76.50;;;;;;4972511;28;20045;-65
2022/07/20 07:18:54;;;;;;;23.55;17.23;;;28.20;76.80;;;;;;4972271;28;20082;-65
2022/07/20 07:21:19;;;;;;;24.55;17.38;;;28.30;77.50;;;;;;4964446;28;20069;-64
2022/07/20 07:23:49;;;;;;;24.73;18.23;;;28.40;78.90;;;;;;4978860;28;20121;-66
2022/07/20 07:26:16;;;;;;;28.13;17.98;;;28.40;79.10;;;;;;4961099;28;20113;-67
2022/07/20 07:28:43;;;;;;;27.05;19.80;;;28.50;79.80;;;;;;4961414;28;20050;-67
2022/07/20 07:31:09;;;;;;;24.67;19.42;;;28.70;79.00;;;;;;4977973;28;20073;-68
2022/07/20 07:33:34;;;;;;;27.38;19.63;;;28.80;78.20;;;;;;4995148;28;20543;-66
2022/07/20 07:36:00;;;;;;;27.38;20.73;;;28.90;79.00;;;;;;4978018;28;20077;-66
2022/07/20 07:38:26;;;;;;;24.58;20.33;;;28.90;79.30;;;;;;4977621;28;20538;-68
2022/07/20 07:40:52;;;;;;;29.17;21.02;;;29.10;79.10;;;;;;4978070;28;20173;-66
2022/07/20 07:43:18;;;;;;;25.98;20.25;;;29.10;78.60;;;;;;4995969;28;20047;-67
2022/07/20 07:45:43;;;;;;;29.75;20.20;;;29.20;78.10;;;;;;4979305;28;20081;-65
2022/07/20 07:48:12;;;;;;;28.27;19.83;;;29.30;78.20;;;;;;4958324;28;20047;-67
2022/07/20 07:50:40;;;;;;;27.70;20.83;;;29.30;78.50;;;;;;4958456;28;20441;-67
2022/07/20 07:53:07;;;;;;;27.92;20.38;;;29.40;78.70;;;;;;4942130;28;20043;-67
2022/07/20 07:55:37;;;;;;;24.25;21.10;;;29.60;77.90;;;;;;4955625;28;20497;-66
2022/07/20 07:58:07;;;;;;;25.75;19.92;;;29.60;76.70;;;;;;4975108;28;20273;-66
2022/07/20 08:00:35;;;;;;;28.52;20.98;;;29.60;76.10;;;;;;4975490;28;20117;-68
2022/07/20 08:03:01;;;;;;;24.98;20.13;;;29.50;75.80;;;;;;4975126;28;20113;-67
2022/07/20 08:05:27;;;;;;;30.27;21.45;;;29.50;77.00;;;;;;4976698;28;20058;-66
2022/07/20 08:07:53;;;;;;;29.80;22.23;;;29.50;77.50;;;;;;4959408;28;20054;-65
2022/07/20 08:10:20;;;;;;;28.15;21.77;;;29.60;77.30;;;;;;4994507;28;20517;-64
2022/07/20 08:12:46;;;;;;;29.98;21.27;;;29.70;77.20;;;;;;4994349;28;20042;-65
2022/07/20 08:15:13;;;;;;;27.92;21.60;;;29.70;76.80;;;;;;4977204;28;20034;-67
2022/07/20 08:17:39;;;;;;;24.05;20.23;;;29.80;77.00;;;;;;4994304;28;20042;-65
2022/07/20 08:20:08;;;;;;;25.88;19.20;;;29.80;76.90;;;;;;4976936;28;20501;-67
2022/07/20 08:22:34;;;;;;;29.63;20.13;;;29.90;76.00;;;;;;4977088;28;20057;-68
2022/07/20 08:25:00;;;;;;;24.83;20.88;;;30.00;76.60;;;;;;4958278;28;20042;-65
2022/07/20 08:27:26;;;;;;;27.30;21.30;;;30.10;77.40;;;;;;4976498;28;20082;-66
2022/07/20 08:29:58;;;;;;;26.40;21.38;;;30.30;76.20;;;;;;4994047;28;20074;-67
2022/07/20 08:32:24;;;;;;;26.42;19.83;;;30.30;74.90;;;;;;4976525;28;20516;-68
2022/07/20 08:34:51;;;;;;;34.50;22.65;;;30.20;75.20;;;;;;4976190;28;20061;-68
2022/07/20 08:37:17;;;;;;;30.50;21.88;;;30.10;75.40;;;;;;4993986;28;20106;-66
2022/07/20 08:39:43;;;;;;;28.35;22.08;;;30.20;76.20;;;;;;4976446;28;20038;-68
2022/07/20 08:42:09;;;;;;;27.77;21.98;;;30.20;74.80;;;;;;4993877;28;20125;-68
2022/07/20 08:44:35;;;;;;;31.98;22.50;;;30.20;73.40;;;;;;4983343;28;20081;-65
2022/07/20 08:47:01;;;;;;;27.98;21.38;;;30.10;74.20;;;;;;4995904;28;20046;-67
2022/07/20 08:49:28;;;;;;;31.98;22.00;;;30.20;75.40;;;;;;4995644;28;20042;-67
2022/07/20 08:51:54;;;;;;;29.20;21.45;;;30.20;74.70;;;;;;5013466;28;20033;-66
2022/07/20 08:54:21;;;;;;;28.52;21.05;;;30.30;75.50;;;;;;4993139;28;20161;-67
2022/07/20 08:56:46;;;;;;;25.00;19.60;;;30.40;75.20;;;;;;4979554;28;20049;-64
2022/07/20 08:59:12;;;;;;;24.88;17.95;;;30.50;74.40;;;;;;5013192;28;20041;-65
2022/07/20 09:01:59;;;;;;;25.83;19.25;;;30.50;73.40;;;;;;4995874;28;20124;-65
2022/07/20 09:04:25;;;;;;;25.23;19.25;;;30.60;72.10;;;;;;5012940;28;20495;-67
2022/07/20 09:06:50;;;;;;;21.42;17.48;;;30.50;73.60;;;;;;4995211;28;20140;-67
2022/07/20 09:09:18;;;;;;;24.35;17.88;;;30.50;73.00;;;;;;5013067;28;20049;-65
2022/07/20 09:11:44;;;;;;;23.23;16.83;;;30.40;72.30;;;;;;4995386;28;20038;-66
2022/07/20 09:14:10;;;;;;;20.60;16.77;;;30.30;73.00;;;;;;4995244;28;20045;-67
2022/07/20 09:16:42;;;;;;;18.98;15.48;;;30.30;72.40;;;;;;4995327;28;20045;-67
2022/07/20 09:19:09;;;;;;;19.60;14.95;;;30.40;72.00;;;;;;4995310;28;20128;-66
2022/07/20 09:21:35;;;;;;;22.75;15.57;;;30.30;71.50;;;;;;4995327;28;20444;-69
2022/07/20 09:24:06;;;;;;;16.58;14.45;;;30.40;73.90;;;;;;4992943;28;20141;-66
2022/07/20 09:26:32;;;;;;;22.65;15.23;;;30.60;72.30;;;;;;5010419;28;20138;-65
2022/07/20 09:29:00;;;;;;;19.05;13.95;;;30.70;71.10;;;;;;4978697;28;20516;-65
2022/07/20 09:31:30;;;;;;;20.65;15.15;;;30.60;70.50;;;;;;4975516;28;20501;-66
2022/07/20 09:33:58;;;;;;;18.90;12.48;;;30.60;71.60;;;;;;4989090;28;20038;-65
2022/07/20 09:36:26;;;;;;;19.35;14.65;;;30.60;71.40;;;;;;4995207;28;20042;-68
2022/07/20 09:38:52;;;;;;;20.67;13.38;;;30.70;71.70;;;;;;4994794;28;20642;-67
2022/07/20 09:41:28;;;;;;;15.90;12.32;;;30.90;72.10;;;;;;4994807;28;20085;-67
2022/07/20 09:43:55;;;;;;;16.90;12.43;;;31.10;69.10;;;;;;4993661;28;20475;-66
2022/07/20 09:46:35;;;;;;;18.13;12.27;;;31.10;68.90;;;;;;5007726;28;20133;-66
2022/07/20 09:49:09;;;;;;;15.65;11.73;;;31.10;68.50;;;;;;5011942;28;20045;-67
2022/07/20 09:51:43;;;;;;;18.73;11.43;;;31.20;68.80;;;;;;4994643;28;20274;-66
2022/07/20 09:54:12;;;;;;;19.50;12.32;;;31.30;68.20;;;;;;4975991;28;20380;-67
2022/07/20 09:56:41;;;;;;;17.73;12.13;;;31.20;66.20;;;;;;5007447;28;20126;-67
2022/07/20 09:59:13;;;;;;;17.98;11.43;;;31.20;67.20;;;;;;5011695;28;20045;-68
2022/07/20 10:01:44;;;;;;;17.88;11.00;;;31.20;68.00;;;;;;4994324;28;20042;-69
2022/07/20 10:04:11;;;;;;;16.50;10.95;;;31.30;68.70;;;;;;5010085;28;20392;-69
2022/07/20 10:06:39;;;;;;;14.85;10.13;;;31.60;67.50;;;;;;5012336;28;20089;-66
2022/07/20 10:09:07;;;;;;;14.80;9.77;;;31.80;66.70;;;;;;5012501;28;20052;-67
2022/07/20 10:11:33;;;;;;;13.60;9.65;;;32.00;65.30;;;;;;4994503;28;20500;-67
2022/07/20 10:14:01;;;;;;;17.10;9.52;;;31.80;63.70;;;;;;5011809;28;20045;-67
2022/07/20 10:16:31;;;;;;;13.70;9.40;;;31.70;65.50;;;;;;5012108;28;20042;-67
2022/07/20 10:18:58;;;;;;;11.43;8.50;;;31.50;63.20;;;;;;4994415;28;20112;-67
2022/07/20 10:21:46;;;;;;;14.75;9.45;;;31.30;63.10;;;;;;4990946;28;20038;-66
2022/07/20 10:24:31;;;;;;;17.27;9.32;;;31.10;63.30;;;;;;5010103;28;20793;-66
2022/07/20 10:27:02;;;;;;;14.73;9.43;;;30.90;63.90;;;;;;5012669;28;20088;-67
2022/07/20 10:29:56;;;;;;;10.80;9.35;;;30.80;66.00;;;;;;4995027;28;20041;-67
2022/07/20 10:32:32;;;;;;;18.10;9.93;;;30.80;65.10;;;;;;5011660;28;20037;-67
2022/07/20 10:35:00;;;;;;;17.17;9.32;;;30.90;65.90;;;;;;4994076;28;20046;-69
2022/07/20 10:37:32;;;;;;;13.40;9.23;;;31.20;65.70;;;;;;4994204;28;20049;-68
2022/07/20 10:39:58;;;;;;;12.55;9.02;;;31.40;65.70;;;;;;4994243;28;20403;-67
2022/07/20 10:42:30;;;;;;;17.48;10.25;;;31.50;63.50;;;;;;5011464;28;20054;-66
2022/07/20 10:45:16;;;;;;;11.23;9.07;;;31.60;62.00;;;;;;4984630;28;20050;-66
2022/07/20 10:47:52;;;;;;;13.15;8.90;;;31.70;64.30;;;;;;4978347;28;20048;-65
2022/07/20 10:50:33;;;;;;;14.00;9.20;;;31.80;65.40;;;;;;4974711;28;20562;-68
2022/07/20 10:53:11;;;;;;;12.75;9.35;;;31.90;64.10;;;;;;4974737;28;20365;-67
2022/07/20 10:55:36;;;;;;;10.50;8.48;;;32.00;61.00;;;;;;4972420;28;20117;-66
2022/07/20 10:58:17;;;;;;;11.73;8.40;;;31.80;60.20;;;;;;4978185;28;20077;-67
2022/07/20 11:00:50;;;;;;;9.63;8.20;;;31.70;62.20;;;;;;4978377;28;20042;-66
2022/07/20 11:03:20;;;;;;;11.57;8.40;;;31.80;62.30;;;;;;4962343;28;20057;-68
2022/07/20 11:05:48;;;;;;;12.45;8.15;;;31.90;63.40;;;;;;4961834;28;20484;-67
2022/07/20 11:08:14;;;;;;;12.32;7.90;;;32.00;63.00;;;;;;4995677;28;20499;-67
2022/07/20 11:10:42;;;;;;;14.18;8.20;;;32.10;62.90;;;;;;4995657;28;20081;-66
2022/07/20 11:13:10;;;;;;;10.98;7.95;;;32.20;62.10;;;;;;4978011;28;20045;-67
2022/07/20 11:15:39;;;;;;;;;;;32.40;61.40;;;;;;4978642;28;20042;-67
2022/07/20 11:18:06;;;;;;;;;;;32.40;60.90;;;;;;4995904;28;19965;-66
2022/07/20 11:20:32;;;;;;;12.00;7.22;;;32.10;59.90;;;;;;4961654;28;19945;-67
2022/07/20 11:23:00;;;;;;;9.80;6.97;;;31.80;60.30;;;;;;5004693;28;20411;-66
2022/07/20 11:25:28;;;;;;;10.43;7.50;;;31.80;60.30;;;;;;4994922;28;20041;-69
2022/07/20 11:28:04;;;;;;;11.10;7.28;;;31.80;61.40;;;;;;4982973;28;20460;-69
2022/07/20 11:30:36;;;;;;;12.23;8.23;;;32.00;61.00;;;;;;4982503;28;20073;-67
2022/07/20 11:33:02;;;;;;;10.52;7.80;;;32.10;60.10;;;;;;5014458;28;20026;-68
2022/07/20 11:35:28;;;;;;;11.48;7.60;;;32.10;59.90;;;;;;4996885;28;20125;-67
2022/07/20 11:37:55;;;;;;;12.13;8.15;;;31.90;59.90;;;;;;4997111;28;20041;-67
2022/07/20 11:40:23;;;;;;;14.05;8.65;;;31.70;60.90;;;;;;4996804;28;20052;-66
2022/07/20 11:43:13;;;;;;;10.60;8.13;;;31.70;61.10;;;;;;4980360;28;20046;-69
2022/07/20 11:45:39;;;;;;;12.52;7.47;;;31.70;63.80;;;;;;4997170;28;20045;-67
2022/07/20 11:48:22;;;;;;;14.20;8.73;;;31.80;65.10;;;;;;4995770;28;20668;-67
2022/07/20 11:50:48;;;;;;;11.43;7.95;;;32.00;64.00;;;;;;5014279;28;20041;-66
2022/07/20 11:53:32;;;;;;;9.00;8.10;;;32.10;62.50;;;;;;4979304;28;20097;-66
2022/07/20 11:56:00;;;;;;;14.43;8.18;;;32.20;61.10;;;;;;4992689;28;20042;-66
2022/07/20 11:58:31;;;;;;;13.53;9.13;;;32.10;61.60;;;;;;4977809;28;20046;-65
2022/07/20 12:00:59;;;;;;;13.13;8.45;;;32.10;61.70;;;;;;4977933;28;20408;-65
2022/07/20 12:03:47;;;;;;;11.32;8.75;;;32.20;62.20;;;;;;5003238;28;20034;-66
2022/07/20 12:06:14;;;;;;;13.00;9.55;;;32.20;59.50;;;;;;5011907;28;20046;-69
2022/07/20 12:08:41;;;;;;;10.77;9.02;;;31.80;61.30;;;;;;4996440;28;22035;-67
2022/07/20 12:11:09;;;;;;;12.43;8.45;;;31.60;60.20;;;;;;4997162;28;20049;-66
2022/07/20 12:13:47;;;;;;;13.63;8.55;;;31.40;59.60;;;;;;4996335;28;20575;-68
2022/07/20 12:16:14;;;;;;;12.50;8.48;;;31.30;61.80;;;;;;4996267;28;20042;-66
2022/07/20 12:18:50;;;;;;;16.00;8.30;;;31.30;62.80;;;;;;5013886;28;20383;-68
2022/07/20 12:21:25;;;;;;;15.93;8.40;;;31.40;63.20;;;;;;4993258;28;20077;-67
2022/07/20 12:23:54;;;;;;;13.52;7.95;;;31.50;64.00;;;;;;5009780;28;20038;-67
2022/07/20 12:26:30;;;;;;;13.15;8.00;;;31.60;61.80;;;;;;4995250;28;20042;-66
2022/07/20 12:29:20;;;;;;;11.75;8.15;;;31.60;61.10;;;;;;4996086;28;20076;-69
2022/07/20 12:32:05;;;;;;;11.15;8.48;;;31.50;62.00;;;;;;4995999;28;20037;-67
2022/07/20 12:34:47;;;;;;;9.80;7.80;;;31.50;60.50;;;;;;4996251;28;20041;-65
2022/07/20 12:37:13;;;;;;;9.65;7.57;;;31.30;60.20;;;;;;4995823;28;20038;-69
2022/07/20 12:39:47;;;;;;;13.27;8.93;;;31.20;62.10;;;;;;4979593;28;20064;-67
2022/07/20 12:42:19;;;;;;;10.82;8.18;;;31.20;63.60;;;;;;4995853;28;20520;-67
2022/07/20 12:44:49;;;;;;;10.65;7.72;;;31.10;60.70;;;;;;4987875;28;20046;-69